createdAt,value
2022-07-28T00:01:04.866Z,2.40
2022-07-28T00:03:31.981Z,2.10
2022-07-28T00:05:59.172Z,2.30
2022-07-28T00:08:26.354Z,2.20
2022-07-28T00:10:53.571Z,2.27
2022-07-28T00:13:20.787Z,2.20
2022-07-28T00:15:47.929Z,2.30
2022-07-28T00:18:15.121Z,2.53
2022-07-28T00:20:42.271Z,2.50
2022-07-28T00:23:09.423Z,2.43
2022-07-28T00:25:36.571Z,2.40
2022-07-28T00:28:03.714Z,2.23
2022-07-28T00:30:31.001Z,2.23
2022-07-28T00:32:58.284Z,2.10
2022-07-28T00:35:30.159Z,2.43
2022-07-28T00:37:58.344Z,2.30
2022-07-28T00:40:45.457Z,2.37
2022-07-28T00:43:12.657Z,2.20
2022-07-28T00:45:39.892Z,2.33
2022-07-28T00:48:07.254Z,2.30
2022-07-28T00:50:34.490Z,2.40
2022-07-28T00:53:01.666Z,2.10
2022-07-28T00:55:28.894Z,2.37
2022-07-28T00:57:56.054Z,2.60
2022-07-28T01:00:23.274Z,2.83
2022-07-28T01:02:50.694Z,2.90
2022-07-28T01:05:19.086Z,2.60
2022-07-28T01:08:08.705Z,2.77
2022-07-28T01:10:44.361Z,3.17
2022-07-28T01:13:14.127Z,3.40
2022-07-28T01:15:56.375Z,2.90
2022-07-28T01:18:27.528Z,3.07
2022-07-28T01:20:55.964Z,3.03
2022-07-28T01:23:32.419Z,3.30
2022-07-28T01:26:11.076Z,2.83
2022-07-28T01:28:44.371Z,2.90
2022-07-28T01:31:13.755Z,2.70
2022-07-28T01:33:47.300Z,2.67
2022-07-28T01:36:16.740Z,2.97
2022-07-28T01:38:44.718Z,3.07
2022-07-28T01:41:13.435Z,2.90
2022-07-28T01:43:42.533Z,2.80
2022-07-28T01:46:09.919Z,2.80
2022-07-28T01:48:40.218Z,2.80
2022-07-28T01:51:08.237Z,2.50
2022-07-28T01:53:38.308Z,2.30
2022-07-28T01:56:06.345Z,2.43
2022-07-28T01:58:33.999Z,2.60
2022-07-28T02:01:01.729Z,2.20
2022-07-28T02:03:29.827Z,2.53
2022-07-28T02:05:57.707Z,2.50
2022-07-28T02:08:25.452Z,2.40
2022-07-28T02:11:12.771Z,2.60
2022-07-28T02:13:40.165Z,2.20
2022-07-28T02:16:10.567Z,2.37
2022-07-28T02:18:38.911Z,2.80
2022-07-28T02:21:07.683Z,2.43
2022-07-28T02:23:35.805Z,2.40
2022-07-28T02:26:05.092Z,2.53
2022-07-28T02:28:32.477Z,2.40
2022-07-28T02:31:02.317Z,2.60
2022-07-28T02:34:00.178Z,2.47
2022-07-28T02:36:21.104Z,2.40
2022-07-28T02:38:51.594Z,2.60
2022-07-28T02:41:22.652Z,2.43
2022-07-28T02:43:51.472Z,2.33
2022-07-28T02:46:24.593Z,3.00
2022-07-28T02:48:55.384Z,3.20
2022-07-28T02:51:24.259Z,2.97
2022-07-28T02:53:51.856Z,2.97
2022-07-28T02:56:19.091Z,2.93
2022-07-28T02:58:46.410Z,2.90
2022-07-28T03:01:14.022Z,2.87
2022-07-28T03:03:44.123Z,2.70
2022-07-28T03:06:11.475Z,2.60
2022-07-28T03:08:38.694Z,3.00
2022-07-28T03:11:12.499Z,2.97
2022-07-28T03:13:40.614Z,2.30
2022-07-28T03:16:08.552Z,2.47
2022-07-28T03:18:35.686Z,2.90
2022-07-28T03:21:02.887Z,2.50
2022-07-28T03:23:35.180Z,2.60
2022-07-28T03:26:05.831Z,2.67
2022-07-28T03:28:33.757Z,2.17
2022-07-28T03:31:08.552Z,2.27
2022-07-28T03:33:35.919Z,2.50
2022-07-28T03:36:12.912Z,2.90
2022-07-28T03:38:43.789Z,2.33
2022-07-28T03:41:11.678Z,2.60
2022-07-28T03:43:38.973Z,2.70
2022-07-28T03:46:13.010Z,2.80
2022-07-28T03:48:40.617Z,2.20
2022-07-28T03:51:07.881Z,2.70
2022-07-28T03:53:35.072Z,2.87
2022-07-28T03:56:03.364Z,2.90
2022-07-28T03:58:31.237Z,2.63
2022-07-28T04:00:58.994Z,2.70
2022-07-28T04:03:36.783Z,2.90
2022-07-28T04:06:12.167Z,2.43
2022-07-28T04:08:39.305Z,2.40
2022-07-28T04:11:06.978Z,3.03
2022-07-28T04:13:36.611Z,3.03
2022-07-28T04:16:03.945Z,2.60
2022-07-28T04:18:31.075Z,2.90
2022-07-28T04:20:58.311Z,2.60
2022-07-28T04:23:25.908Z,2.90
2022-07-28T04:25:53.038Z,2.67
2022-07-28T04:28:20.255Z,2.60
2022-07-28T04:30:47.511Z,2.80
2022-07-28T04:33:14.713Z,2.83
2022-07-28T04:35:41.851Z,2.70
2022-07-28T04:38:08.988Z,2.70
2022-07-28T04:40:36.089Z,3.03
2022-07-28T04:43:03.983Z,3.10
2022-07-28T04:45:31.494Z,2.70
2022-07-28T04:47:58.705Z,2.73
2022-07-28T04:50:25.963Z,2.60
2022-07-28T04:52:53.147Z,2.70
2022-07-28T04:55:20.293Z,2.40
2022-07-28T04:57:48.172Z,2.63
2022-07-28T05:00:15.590Z,2.30
2022-07-28T05:02:44.246Z,2.67
2022-07-28T05:05:12.309Z,2.87
2022-07-28T05:07:40.127Z,3.00
2022-07-28T05:10:08.407Z,2.70
2022-07-28T05:12:35.870Z,2.80
2022-07-28T05:15:03.009Z,2.50
2022-07-28T05:17:30.171Z,2.47
2022-07-28T05:19:57.496Z,2.67
2022-07-28T05:22:24.693Z,2.90
2022-07-28T05:24:51.808Z,2.90
2022-07-28T05:27:18.926Z,2.80
2022-07-28T05:29:47.614Z,3.07
2022-07-28T05:32:16.318Z,2.73
2022-07-28T05:34:44.033Z,2.70
2022-07-28T05:37:11.178Z,3.00
2022-07-28T05:39:38.333Z,2.60
2022-07-28T05:42:05.607Z,2.30
2022-07-28T05:44:37.817Z,2.67
2022-07-28T05:47:05.470Z,2.50
2022-07-28T05:49:32.670Z,2.97
2022-07-28T05:51:59.799Z,2.30
2022-07-28T05:54:26.967Z,2.30
2022-07-28T05:56:54.104Z,2.40
2022-07-28T05:59:21.350Z,2.50
2022-07-28T06:01:48.575Z,2.90
2022-07-28T06:04:31.525Z,2.20
2022-07-28T06:06:58.919Z,2.87
2022-07-28T06:09:26.060Z,2.50
2022-07-28T06:11:53.219Z,3.03
2022-07-28T06:14:20.371Z,2.87
2022-07-28T06:16:51.464Z,3.00
2022-07-28T06:19:19.105Z,2.60
2022-07-28T06:21:47.541Z,2.73
2022-07-28T06:24:15.147Z,2.60
2022-07-28T06:26:45.003Z,2.23
2022-07-28T06:29:12.595Z,2.30
2022-07-28T06:31:40.005Z,1.87
2022-07-28T06:34:07.480Z,1.63
2022-07-28T06:36:34.617Z,2.17
2022-07-28T06:39:02.237Z,2.10
2022-07-28T06:41:29.386Z,1.90
2022-07-28T06:43:56.503Z,1.60
2022-07-28T06:46:23.716Z,1.90
2022-07-28T06:48:51.044Z,2.07
2022-07-28T06:51:19.919Z,2.20
2022-07-28T06:53:48.551Z,2.30
2022-07-28T06:56:16.164Z,1.70
2022-07-28T06:58:46.943Z,1.63
2022-07-28T07:01:15.190Z,1.77
2022-07-28T07:03:42.885Z,1.40
2022-07-28T07:06:10.927Z,1.80
2022-07-28T07:08:38.430Z,1.97
2022-07-28T07:11:05.639Z,1.80
2022-07-28T07:13:33.090Z,1.80
2022-07-28T07:16:00.525Z,2.37
2022-07-28T07:18:27.792Z,2.20
2022-07-28T07:20:54.973Z,2.10
2022-07-28T07:23:22.136Z,1.70
2022-07-28T07:25:49.362Z,2.13
2022-07-28T07:28:16.493Z,2.00
2022-07-28T07:30:43.912Z,2.17
2022-07-28T07:33:11.090Z,2.30
2022-07-28T07:35:38.563Z,2.10
2022-07-28T07:38:05.920Z,1.93
2022-07-28T07:40:33.069Z,1.90
2022-07-28T07:43:00.248Z,2.40
2022-07-28T07:45:27.521Z,2.00
2022-07-28T07:47:54.684Z,2.10
2022-07-28T07:50:21.890Z,1.97
2022-07-28T07:52:52.045Z,2.10
2022-07-28T07:55:19.272Z,2.30
2022-07-28T07:57:46.412Z,2.00
2022-07-28T08:00:28.139Z,1.93
2022-07-28T08:02:56.558Z,1.83
2022-07-28T08:05:35.057Z,1.97
2022-07-28T08:08:03.736Z,2.30
2022-07-28T08:10:30.994Z,1.90
2022-07-28T08:12:58.206Z,2.10
2022-07-28T08:15:25.560Z,2.07
2022-07-28T08:17:52.681Z,2.40
2022-07-28T08:20:20.188Z,4.10
2022-07-28T08:22:48.521Z,3.53
2022-07-28T08:25:15.775Z,2.40
2022-07-28T08:27:42.961Z,2.30
2022-07-28T08:30:10.657Z,1.97
2022-07-28T08:32:37.839Z,2.40
2022-07-28T08:35:31.497Z,2.30
2022-07-28T08:37:52.757Z,2.30
2022-07-28T08:40:22.418Z,2.10
2022-07-28T08:42:57.911Z,2.43
2022-07-28T08:45:26.021Z,2.87
2022-07-28T08:48:08.319Z,2.60
2022-07-28T08:50:37.298Z,2.33
2022-07-28T08:53:05.478Z,2.70
2022-07-28T08:55:32.847Z,2.40
2022-07-28T08:58:00.552Z,2.73
2022-07-28T09:00:27.951Z,2.70
2022-07-28T09:02:55.754Z,2.73
2022-07-28T09:05:23.847Z,2.73
2022-07-28T09:07:54.689Z,2.40
2022-07-28T09:10:22.626Z,2.73
2022-07-28T09:12:49.868Z,2.10
2022-07-28T09:15:17.026Z,2.37
2022-07-28T09:17:44.221Z,2.50
2022-07-28T09:20:11.897Z,2.40
2022-07-28T09:22:56.261Z,2.20
2022-07-28T09:25:23.608Z,2.40
2022-07-28T09:27:51.868Z,2.07
2022-07-28T09:30:28.917Z,2.60
2022-07-28T09:33:12.138Z,2.87
2022-07-28T09:35:59.903Z,2.30
2022-07-28T09:38:40.171Z,2.20
2022-07-28T09:41:07.517Z,2.60
2022-07-28T09:43:38.338Z,2.30
2022-07-28T09:46:06.694Z,1.87
2022-07-28T09:48:34.326Z,2.25
2022-07-28T09:51:13.041Z,2.20
2022-07-28T09:53:40.543Z,2.53
2022-07-28T09:56:07.941Z,2.60
2022-07-28T09:58:35.282Z,2.20
2022-07-28T10:01:03.393Z,2.25
2022-07-28T10:03:30.986Z,2.42
2022-07-28T10:05:59.220Z,2.53
2022-07-28T10:08:44.788Z,2.40
2022-07-28T10:11:12.921Z,2.55
2022-07-28T10:13:52.209Z,2.30
2022-07-28T10:16:20.722Z,2.53
2022-07-28T10:18:48.588Z,2.28
2022-07-28T10:21:17.072Z,2.40
2022-07-28T10:23:48.756Z,2.50
2022-07-28T10:26:16.531Z,2.40
2022-07-28T10:28:51.849Z,2.58
2022-07-28T10:31:23.881Z,2.00
2022-07-28T10:33:51.927Z,2.05
2022-07-28T10:36:23.296Z,2.17
2022-07-28T10:38:50.946Z,2.28
2022-07-28T10:41:19.493Z,2.63
2022-07-28T10:43:47.332Z,2.40
2022-07-28T10:46:17.002Z,2.28
2022-07-28T10:48:45.146Z,2.40
2022-07-28T10:51:13.801Z,2.28
2022-07-28T10:53:47.570Z,2.20
2022-07-28T10:56:20.157Z,2.60
2022-07-28T10:59:00.206Z,2.40
2022-07-28T11:01:53.829Z,2.25
2022-07-28T11:04:39.807Z,2.40
2022-07-28T11:07:11.035Z,2.30
2022-07-28T11:09:38.356Z,2.35
2022-07-28T11:12:06.217Z,2.40
2022-07-28T11:14:39.187Z,2.28
2022-07-28T11:17:10.087Z,2.25
2022-07-28T11:22:34.865Z,2.40
2022-07-28T11:25:18.521Z,2.33
2022-07-28T11:27:52.232Z,2.42
2022-07-28T11:30:21.245Z,2.55
2022-07-28T11:32:51.510Z,2.45
2022-07-28T11:35:19.537Z,2.55
2022-07-28T11:38:01.851Z,2.70
2022-07-28T11:40:42.681Z,2.45
2022-07-28T11:43:24.227Z,2.22
2022-07-28T11:46:05.302Z,2.40
2022-07-28T11:48:38.065Z,2.53
2022-07-28T11:51:05.311Z,2.50
2022-07-28T11:53:52.487Z,2.15
2022-07-28T11:56:22.641Z,2.28
2022-07-28T11:58:57.725Z,2.13
2022-07-28T12:01:24.876Z,2.60
2022-07-28T12:03:55.386Z,2.53
2022-07-28T12:06:26.315Z,2.22
2022-07-28T12:09:00.865Z,2.30
2022-07-28T12:11:28.424Z,2.40
2022-07-28T12:14:07.431Z,2.25
2022-07-28T12:16:36.018Z,2.35
2022-07-28T12:19:03.849Z,2.40
2022-07-28T12:21:46.508Z,2.40
2022-07-28T12:24:21.085Z,2.30
2022-07-28T12:26:50.734Z,2.33
2022-07-28T12:29:20.585Z,2.15
2022-07-28T12:31:52.973Z,2.28
2022-07-28T12:34:21.374Z,2.40
2022-07-28T12:36:51.958Z,2.40
2022-07-28T12:39:22.624Z,2.30
2022-07-28T12:41:49.858Z,2.55
2022-07-28T12:44:17.527Z,2.40
2022-07-28T12:46:48.913Z,2.88
2022-07-28T12:49:22.829Z,2.70
2022-07-28T12:51:50.065Z,2.40
2022-07-28T12:54:17.813Z,2.20
2022-07-28T12:56:46.525Z,2.17
2022-07-28T12:59:13.775Z,2.20
2022-07-28T13:01:46.688Z,2.13
2022-07-28T13:04:14.029Z,2.35
2022-07-28T13:06:42.007Z,2.17
2022-07-28T13:09:14.927Z,2.20
2022-07-28T13:11:46.098Z,2.20
2022-07-28T13:14:15.136Z,2.17
2022-07-28T13:16:42.599Z,2.47
2022-07-28T13:19:21.123Z,2.20
2022-07-28T13:21:57.234Z,2.58
2022-07-28T13:24:26.304Z,2.53
2022-07-28T13:26:53.499Z,2.40
2022-07-28T13:29:20.735Z,2.10
2022-07-28T13:31:47.919Z,2.53
2022-07-28T13:34:15.642Z,2.33
2022-07-28T13:36:43.147Z,2.47
2022-07-28T13:39:14.175Z,2.38
2022-07-28T13:41:48.531Z,2.38
2022-07-28T13:44:25.243Z,2.00
2022-07-28T13:46:53.167Z,2.47
2022-07-28T13:49:22.836Z,2.33
2022-07-28T13:51:51.168Z,2.00
2022-07-28T13:54:19.464Z,2.20
2022-07-28T13:56:47.242Z,2.38
2022-07-28T13:59:14.389Z,2.40
2022-07-28T14:01:42.456Z,2.20
2022-07-28T14:04:14.662Z,2.40
2022-07-28T14:06:45.148Z,2.30
2022-07-28T14:09:12.983Z,2.30
2022-07-28T14:11:49.428Z,2.33
2022-07-28T14:14:20.509Z,2.20
2022-07-28T14:16:51.699Z,2.30
2022-07-28T14:19:23.599Z,2.20
2022-07-28T14:22:12.243Z,2.35
2022-07-28T14:24:40.352Z,2.10
2022-07-28T14:27:07.502Z,2.30
2022-07-28T14:29:34.671Z,2.30
2022-07-28T14:32:01.817Z,2.28
2022-07-28T14:34:28.952Z,2.15
2022-07-28T14:36:56.443Z,2.55
2022-07-28T14:39:23.646Z,2.20
2022-07-28T14:41:51.058Z,2.20
2022-07-28T14:44:24.626Z,2.38
2022-07-28T14:46:52.360Z,2.45
2022-07-28T14:49:19.567Z,2.30
2022-07-28T14:51:46.801Z,2.53
2022-07-28T14:54:14.368Z,2.42
2022-07-28T14:56:41.763Z,2.38
2022-07-28T14:59:09.044Z,2.30
2022-07-28T15:01:36.523Z,2.80
2022-07-28T15:04:04.156Z,2.25
2022-07-28T15:06:31.381Z,2.30
2022-07-28T15:08:58.600Z,2.35
2022-07-28T15:11:25.830Z,4.13
2022-07-28T15:13:52.988Z,3.53
2022-07-28T15:16:20.152Z,8.90
2022-07-28T15:18:47.391Z,6.35
2022-07-28T15:21:15.891Z,4.25
2022-07-28T15:23:43.033Z,3.95
2022-07-28T15:26:10.614Z,3.50
2022-07-28T15:28:37.964Z,2.30
2022-07-28T15:31:05.416Z,2.50
2022-07-28T15:33:48.103Z,2.40
2022-07-28T15:36:15.969Z,3.50
2022-07-28T15:38:47.118Z,2.47
2022-07-28T15:41:15.115Z,2.38
2022-07-28T15:43:42.620Z,2.65
2022-07-28T15:46:11.730Z,2.45
2022-07-28T15:48:39.573Z,2.50
2022-07-28T15:51:07.273Z,2.33
2022-07-28T15:53:34.861Z,2.63
2022-07-28T15:56:02.067Z,2.47
2022-07-28T15:58:29.223Z,2.33
2022-07-28T16:00:56.442Z,3.20
2022-07-28T16:03:28.204Z,7.40
2022-07-28T16:05:55.478Z,4.47
2022-07-28T16:08:23.289Z,3.13
2022-07-28T16:10:51.529Z,3.05
2022-07-28T16:13:31.402Z,3.22
2022-07-28T16:16:07.541Z,3.70
2022-07-28T16:18:36.432Z,2.35
2022-07-28T16:21:03.659Z,2.63
2022-07-28T16:23:30.886Z,2.65
2022-07-28T16:25:58.269Z,2.20
2022-07-28T16:28:26.533Z,2.50
2022-07-28T16:30:54.247Z,2.55
2022-07-28T16:33:21.468Z,2.50
2022-07-28T16:35:48.647Z,2.80
2022-07-28T16:38:15.973Z,2.10
2022-07-28T16:40:43.135Z,2.35
2022-07-28T16:43:10.328Z,2.22
2022-07-28T16:45:37.561Z,2.38
2022-07-28T16:48:04.720Z,1.98
2022-07-28T16:50:32.689Z,2.08
2022-07-28T16:53:00.164Z,2.00
2022-07-28T16:55:27.576Z,2.10
2022-07-28T16:57:56.331Z,2.08
2022-07-28T17:00:25.989Z,2.25
2022-07-28T17:02:53.475Z,2.08
2022-07-28T17:05:20.739Z,2.22
2022-07-28T17:07:47.942Z,1.90
2022-07-28T17:10:20.474Z,2.08
2022-07-28T17:12:50.258Z,1.80
2022-07-28T17:15:19.783Z,1.80
2022-07-28T17:17:50.338Z,1.90
2022-07-28T17:20:17.705Z,1.83
2022-07-28T17:22:45.160Z,1.77
2022-07-28T17:27:59.925Z,1.80
2022-07-28T17:30:29.927Z,2.05
2022-07-28T17:33:03.526Z,2.03
2022-07-28T17:35:35.479Z,1.95
2022-07-28T17:38:03.314Z,2.10
2022-07-28T17:40:30.502Z,1.80
2022-07-28T17:42:57.798Z,1.85
2022-07-28T17:45:24.993Z,1.77
2022-07-28T17:47:52.311Z,1.90
2022-07-28T17:50:19.492Z,2.13
2022-07-28T17:52:46.824Z,1.98
2022-07-28T17:55:55.949Z,1.92
2022-07-28T17:58:27.936Z,1.92
2022-07-28T18:00:57.991Z,2.00
2022-07-28T18:03:28.150Z,1.80
2022-07-28T18:05:55.326Z,2.00
2022-07-28T18:08:23.877Z,2.03
2022-07-28T18:10:51.440Z,2.22
2022-07-28T18:13:18.693Z,1.83
2022-07-28T18:15:45.924Z,1.90
2022-07-28T18:18:13.441Z,2.92
2022-07-28T18:20:41.065Z,2.78
2022-07-28T18:23:09.101Z,1.88
2022-07-28T18:25:37.720Z,1.92
2022-07-28T18:28:07.384Z,2.08
2022-07-28T18:30:35.011Z,2.20
2022-07-28T18:33:02.527Z,1.85
2022-07-28T18:35:30.364Z,1.80
2022-07-28T18:37:58.116Z,1.70
2022-07-28T18:40:25.416Z,2.05
2022-07-28T18:42:52.854Z,1.88
2022-07-28T18:45:20.125Z,1.80
2022-07-28T18:47:47.824Z,1.67
2022-07-28T18:50:30.501Z,1.60
2022-07-28T18:52:58.522Z,1.80
2022-07-28T18:55:25.747Z,1.70
2022-07-28T18:57:52.911Z,1.70
2022-07-28T19:00:20.281Z,1.63
2022-07-28T19:02:47.491Z,1.75
2022-07-28T19:05:14.684Z,1.58
2022-07-28T19:07:41.843Z,1.98
2022-07-28T19:10:09.715Z,1.60
2022-07-28T19:12:36.941Z,1.50
2022-07-28T19:15:04.247Z,1.38
2022-07-28T19:17:31.465Z,1.40
2022-07-28T19:19:59.599Z,1.50
2022-07-28T19:22:26.842Z,1.60
2022-07-28T19:24:54.115Z,1.63
2022-07-28T19:27:21.417Z,1.60
2022-07-28T19:29:48.639Z,1.83
2022-07-28T19:32:17.653Z,2.10
2022-07-28T19:34:47.565Z,1.60
2022-07-28T19:37:16.820Z,1.90
2022-07-28T19:39:46.001Z,1.80
2022-07-28T19:42:13.220Z,1.93
2022-07-28T19:44:41.333Z,1.90
2022-07-28T19:47:08.812Z,1.87
2022-07-28T19:49:36.032Z,2.40
2022-07-28T19:52:03.183Z,2.00
2022-07-28T19:54:30.344Z,2.20
2022-07-28T19:56:57.636Z,2.30
2022-07-28T19:59:25.224Z,2.50
2022-07-28T20:01:52.430Z,2.40
2022-07-28T20:04:23.237Z,2.30
2022-07-28T20:06:55.545Z,2.40
2022-07-28T20:09:22.970Z,2.10
2022-07-28T20:11:50.551Z,2.10
2022-07-28T20:14:18.013Z,2.87
2022-07-28T20:16:46.563Z,2.50
2022-07-28T20:19:14.012Z,2.30
2022-07-28T20:21:41.249Z,2.20
2022-07-28T20:24:08.575Z,2.43
2022-07-28T20:26:35.725Z,2.43
2022-07-28T20:29:04.988Z,2.70
2022-07-28T20:31:32.761Z,2.53
2022-07-28T20:33:59.950Z,2.40
2022-07-28T20:36:29.897Z,2.70
2022-07-28T20:38:57.340Z,2.60
2022-07-28T20:41:24.641Z,2.60
2022-07-28T20:44:18.324Z,2.20
2022-07-28T20:46:38.924Z,2.30
2022-07-28T20:49:06.133Z,2.30
2022-07-28T20:51:33.293Z,2.53
2022-07-28T20:54:00.459Z,2.60
2022-07-28T20:56:27.612Z,2.33
2022-07-28T20:58:54.852Z,2.70
2022-07-28T21:01:23.443Z,2.30
2022-07-28T21:03:51.674Z,2.43
2022-07-28T21:06:18.861Z,2.70
2022-07-28T21:08:47.630Z,2.53
2022-07-28T21:11:14.796Z,2.70
2022-07-28T21:13:41.912Z,2.70
2022-07-28T21:16:09.074Z,2.43
2022-07-28T21:18:39.499Z,2.67
2022-07-28T21:21:06.654Z,2.73
2022-07-28T21:23:33.759Z,2.47
2022-07-28T21:26:00.872Z,2.40
2022-07-28T21:28:46.902Z,2.20
2022-07-28T21:31:14.035Z,2.27
2022-07-28T21:33:41.188Z,2.43
2022-07-28T21:36:08.550Z,2.43
2022-07-28T21:38:35.693Z,2.40
2022-07-28T21:41:02.810Z,2.47
2022-07-28T21:43:30.058Z,2.47
2022-07-28T21:45:57.631Z,2.50
2022-07-28T21:48:25.023Z,2.23
2022-07-28T21:50:52.804Z,2.40
2022-07-28T21:53:20.356Z,2.53
2022-07-28T21:55:48.270Z,2.20
2022-07-28T21:58:16.082Z,2.63
2022-07-28T22:00:43.619Z,2.93
2022-07-28T22:03:11.230Z,2.33
2022-07-28T22:05:38.486Z,2.40
2022-07-28T22:08:05.733Z,2.63
2022-07-28T22:10:32.948Z,2.27
2022-07-28T22:13:00.204Z,2.33
2022-07-28T22:15:27.438Z,2.40
2022-07-28T22:17:54.581Z,2.27
2022-07-28T22:20:21.866Z,2.17
2022-07-28T22:22:49.038Z,2.23
2022-07-28T22:25:16.166Z,2.20
2022-07-28T22:27:43.317Z,2.70
2022-07-28T22:30:10.613Z,2.33
2022-07-28T22:32:37.903Z,2.40
2022-07-28T22:35:05.192Z,2.20
2022-07-28T22:37:32.322Z,2.67
2022-07-28T22:39:59.454Z,2.43
2022-07-28T22:42:26.601Z,2.40
2022-07-28T22:44:53.819Z,2.30
2022-07-28T22:47:21.011Z,2.50
2022-07-28T22:49:48.349Z,2.47
2022-07-28T22:52:15.506Z,2.40
2022-07-28T22:57:27.963Z,2.60
2022-07-28T22:59:56.327Z,2.60
2022-07-28T23:02:25.895Z,2.50
2022-07-28T23:04:53.518Z,2.67
2022-07-28T23:07:20.702Z,2.60
2022-07-28T23:10:08.852Z,4.50
2022-07-28T23:12:36.025Z,3.07
2022-07-28T23:15:03.241Z,2.77
2022-07-28T23:17:30.366Z,2.30
2022-07-28T23:19:58.710Z,2.50
2022-07-28T23:22:25.840Z,2.70
2022-07-28T23:24:53.053Z,2.63
2022-07-28T23:27:20.296Z,2.70
2022-07-28T23:29:48.098Z,2.87
2022-07-28T23:32:17.141Z,2.37
2022-07-28T23:34:44.470Z,2.80
2022-07-28T23:37:11.820Z,2.63
2022-07-28T23:39:39.040Z,2.63
2022-07-28T23:42:06.432Z,2.80
2022-07-28T23:44:33.616Z,3.03
2022-07-28T23:47:00.877Z,2.90
2022-07-28T23:49:28.148Z,2.97
2022-07-28T23:51:55.353Z,3.07
2022-07-28T23:54:22.543Z,2.70
2022-07-28T23:56:51.799Z,2.50
2022-07-28T23:59:19.046Z,3.00
